createdAt,value
2023-02-17T00:00:58.256Z,22.98
2023-02-17T00:03:25.510Z,23.00
2023-02-17T00:05:53.140Z,23.85
2023-02-17T00:08:20.136Z,24.33
2023-02-17T00:10:58.466Z,25.85
2023-02-17T00:13:25.798Z,24.50
2023-02-17T00:15:52.980Z,25.60
2023-02-17T00:18:19.920Z,25.48
2023-02-17T00:20:46.847Z,26.50
2023-02-17T00:23:13.776Z,23.50
2023-02-17T00:25:41.101Z,23.27
2023-02-17T00:28:08.051Z,20.13
2023-02-17T00:30:34.971Z,21.77
2023-02-17T00:33:01.854Z,19.77
2023-02-17T00:35:28.720Z,21.05
2023-02-17T00:37:55.584Z,22.60
2023-02-17T00:40:22.498Z,21.75
2023-02-17T00:42:49.280Z,23.27
2023-02-17T00:45:16.416Z,23.38
2023-02-17T00:47:43.294Z,22.83
2023-02-17T00:50:10.384Z,22.65
2023-02-17T00:52:37.221Z,23.67
2023-02-17T00:55:04.320Z,24.88
2023-02-17T00:57:32.557Z,23.52
2023-02-17T00:59:59.537Z,23.45
2023-02-17T01:02:26.696Z,22.33
2023-02-17T01:04:53.902Z,21.50
2023-02-17T01:07:20.739Z,20.17
2023-02-17T01:09:47.609Z,21.58
2023-02-17T01:12:14.633Z,20.92
2023-02-17T01:14:41.521Z,22.85
2023-02-17T01:17:08.397Z,20.25
2023-02-17T01:19:35.297Z,18.98
2023-02-17T01:22:02.390Z,19.95
2023-02-17T01:24:29.357Z,20.73
2023-02-17T01:26:56.314Z,20.42
2023-02-17T01:29:23.206Z,21.08
2023-02-17T01:31:50.217Z,20.83
2023-02-17T01:34:17.216Z,20.83
2023-02-17T01:36:44.112Z,20.73
2023-02-17T01:39:14.233Z,22.80
2023-02-17T01:41:41.278Z,20.45
2023-02-17T01:44:23.179Z,19.48
2023-02-17T01:46:55.193Z,21.35
2023-02-17T01:49:24.908Z,20.70
2023-02-17T01:51:57.364Z,19.75
2023-02-17T01:54:59.118Z,19.17
2023-02-17T01:57:32.917Z,21.73
2023-02-17T02:00:00.152Z,20.90
2023-02-17T02:02:30.292Z,21.52
2023-02-17T02:04:57.554Z,21.88
2023-02-17T02:07:36.215Z,21.65
2023-02-17T02:10:03.807Z,23.48
2023-02-17T02:12:36.631Z,22.40
2023-02-17T02:15:17.655Z,24.25
2023-02-17T02:18:21.714Z,23.05
2023-02-17T02:21:00.515Z,24.23
2023-02-17T02:23:52.261Z,23.73
2023-02-17T02:26:21.891Z,23.98
2023-02-17T02:29:03.306Z,23.50
2023-02-17T02:31:56.713Z,23.50
2023-02-17T02:34:37.588Z,23.83
2023-02-17T02:37:16.972Z,21.15
2023-02-17T02:39:52.473Z,23.42
2023-02-17T02:42:22.939Z,23.63
2023-02-17T02:44:50.811Z,22.95
2023-02-17T02:47:42.554Z,24.38
2023-02-17T02:50:17.019Z,22.20
2023-02-17T02:53:08.488Z,24.20
2023-02-17T02:55:51.939Z,24.90
2023-02-17T02:58:37.520Z,25.90
2023-02-17T03:03:58.842Z,26.40
2023-02-17T03:06:53.315Z,27.05
2023-02-17T03:09:24.846Z,26.27
2023-02-17T03:11:52.599Z,26.95
2023-02-17T03:27:46.786Z,26.23
2023-02-17T03:30:15.151Z,27.50
2023-02-17T03:32:42.784Z,26.00
2023-02-17T03:35:09.644Z,26.23
2023-02-17T03:37:36.532Z,27.35
2023-02-17T03:40:04.005Z,27.52
2023-02-17T03:42:30.856Z,27.23
2023-02-17T03:44:57.786Z,27.27
2023-02-17T03:47:24.871Z,27.90
2023-02-17T03:49:52.413Z,27.55
2023-02-17T03:52:19.297Z,29.27
2023-02-17T03:54:46.284Z,26.23
2023-02-17T03:57:13.062Z,28.77
2023-02-17T03:59:39.950Z,27.83
2023-02-17T04:02:06.792Z,25.83
2023-02-17T04:04:33.680Z,27.80
2023-02-17T04:07:00.495Z,26.60
2023-02-17T04:09:27.424Z,26.63
2023-02-17T04:11:54.243Z,25.88
2023-02-17T04:14:21.289Z,25.98
2023-02-17T04:16:48.238Z,28.45
2023-02-17T04:19:15.050Z,26.17
2023-02-17T04:21:41.983Z,27.63
2023-02-17T04:24:08.881Z,27.52
2023-02-17T04:26:35.796Z,26.83
2023-02-17T04:29:04.552Z,24.67
2023-02-17T04:31:31.590Z,25.08
2023-02-17T04:33:58.567Z,24.13
2023-02-17T04:36:25.449Z,26.50
2023-02-17T04:38:52.405Z,25.15
2023-02-17T04:41:19.245Z,26.17
2023-02-17T04:43:46.094Z,25.35
2023-02-17T04:46:13.072Z,25.70
2023-02-17T04:48:40.061Z,26.65
2023-02-17T04:51:06.965Z,27.50
2023-02-17T04:53:33.881Z,27.13
2023-02-17T04:56:00.850Z,28.38
2023-02-17T04:58:27.880Z,26.42
2023-02-17T05:00:54.806Z,28.33
2023-02-17T05:03:21.748Z,27.83
2023-02-17T05:05:49.688Z,28.00
2023-02-17T05:08:16.468Z,28.98
2023-02-17T05:10:43.359Z,28.92
2023-02-17T05:13:10.149Z,28.95
2023-02-17T05:15:37.033Z,28.40
2023-02-17T05:18:05.038Z,27.50
2023-02-17T05:20:31.927Z,28.67
2023-02-17T05:22:58.810Z,28.67
2023-02-17T05:25:25.726Z,27.77
2023-02-17T05:27:52.821Z,30.17
2023-02-17T05:30:20.059Z,29.58
2023-02-17T05:32:47.067Z,28.60
2023-02-17T05:35:13.892Z,30.70
2023-02-17T05:37:40.833Z,31.67
2023-02-17T05:40:08.924Z,28.90
2023-02-17T05:42:35.718Z,27.90
2023-02-17T05:45:02.603Z,29.38
2023-02-17T05:47:29.522Z,31.27
2023-02-17T05:49:56.442Z,29.17
2023-02-17T05:52:23.283Z,27.00
2023-02-17T05:54:50.212Z,26.50
2023-02-17T05:57:17.074Z,28.20
2023-02-17T05:59:44.099Z,29.67
2023-02-17T06:02:11.025Z,30.08
2023-02-17T06:04:38.368Z,31.50
2023-02-17T06:07:05.256Z,30.40
2023-02-17T06:09:32.136Z,29.08
2023-02-17T06:11:59.021Z,29.55
2023-02-17T06:14:25.888Z,32.15
2023-02-17T06:16:53.913Z,33.63
2023-02-17T06:19:20.803Z,35.05
2023-02-17T06:21:47.670Z,37.83
2023-02-17T06:24:14.538Z,38.38
2023-02-17T06:26:41.492Z,41.20
2023-02-17T06:29:08.306Z,41.00
2023-02-17T06:31:35.232Z,40.38
2023-02-17T06:34:02.102Z,41.25
2023-02-17T06:36:28.943Z,41.20
2023-02-17T06:38:55.807Z,40.88
2023-02-17T06:41:22.544Z,44.38
2023-02-17T06:43:49.492Z,46.15
2023-02-17T06:46:16.453Z,43.75
2023-02-17T06:48:46.376Z,42.80
2023-02-17T06:51:13.284Z,43.65
2023-02-17T06:53:40.164Z,43.28
2023-02-17T06:56:07.558Z,41.40
2023-02-17T06:58:36.688Z,39.97
2023-02-17T07:01:05.149Z,38.80
2023-02-17T07:03:32.650Z,36.38
2023-02-17T07:06:00.096Z,36.33
2023-02-17T07:08:27.009Z,33.90
2023-02-17T07:10:53.875Z,34.72
2023-02-17T07:13:20.842Z,32.92
2023-02-17T07:15:47.802Z,32.72
2023-02-17T07:18:14.550Z,35.10
2023-02-17T07:20:41.575Z,34.95
2023-02-17T07:23:08.587Z,34.63
2023-02-17T07:25:35.521Z,34.10
2023-02-17T07:28:02.643Z,32.88
2023-02-17T07:30:29.790Z,32.67
2023-02-17T07:32:56.719Z,32.30
2023-02-17T07:35:23.767Z,35.30
2023-02-17T07:37:51.746Z,35.58
2023-02-17T07:40:18.988Z,34.70
2023-02-17T07:42:45.870Z,33.47
2023-02-17T07:45:13.751Z,35.35
2023-02-17T07:47:40.751Z,37.33
2023-02-17T07:50:08.818Z,36.67
2023-02-17T07:52:35.730Z,35.25
2023-02-17T07:55:02.820Z,34.85
2023-02-17T07:57:30.581Z,33.92
2023-02-17T07:59:57.478Z,33.17
2023-02-17T08:02:24.448Z,34.42
2023-02-17T08:04:52.734Z,31.73
2023-02-17T08:07:19.778Z,33.42
2023-02-17T08:10:05.345Z,31.35
2023-02-17T08:12:50.975Z,30.95
2023-02-17T08:15:17.899Z,30.40
2023-02-17T08:17:44.763Z,31.00
2023-02-17T08:30:16.838Z,28.65
2023-02-17T08:32:54.589Z,31.92
2023-02-17T08:35:22.745Z,32.72
2023-02-17T08:37:50.421Z,30.33
2023-02-17T08:40:18.821Z,30.73
2023-02-17T08:42:45.693Z,34.88
2023-02-17T08:45:16.047Z,37.20
2023-02-17T08:47:43.157Z,37.13
2023-02-17T08:50:16.070Z,36.20
2023-02-17T08:52:43.016Z,32.90
2023-02-17T08:55:10.073Z,32.25
2023-02-17T08:57:37.213Z,31.55
2023-02-17T09:00:08.887Z,33.13
2023-02-17T09:02:37.666Z,32.00
2023-02-17T09:05:06.319Z,31.40
2023-02-17T09:07:33.282Z,32.30
2023-02-17T09:10:00.861Z,33.88
2023-02-17T09:12:27.644Z,33.00
2023-02-17T09:14:54.623Z,32.60
2023-02-17T09:17:21.613Z,32.08
2023-02-17T09:19:48.586Z,31.42
2023-02-17T09:22:30.755Z,32.42
2023-02-17T09:24:58.721Z,30.75
2023-02-17T09:27:25.637Z,29.98
2023-02-17T09:29:52.482Z,29.33
2023-02-17T09:32:19.469Z,33.80
2023-02-17T09:34:53.171Z,31.13
2023-02-17T09:37:20.357Z,30.08
2023-02-17T09:39:48.879Z,30.60
2023-02-17T09:42:23.762Z,32.92
2023-02-17T09:45:15.481Z,30.92
2023-02-17T09:47:50.259Z,29.63
2023-02-17T09:50:23.753Z,31.20
2023-02-17T09:53:11.767Z,28.95
2023-02-17T09:55:48.259Z,28.50
2023-02-17T09:58:32.636Z,30.65
2023-02-17T10:01:03.863Z,29.98
2023-02-17T10:03:45.185Z,30.58
2023-02-17T10:06:39.074Z,29.80
2023-02-17T10:09:27.152Z,29.90
2023-02-17T10:12:07.212Z,29.88
2023-02-17T10:14:43.783Z,29.20
2023-02-17T10:17:18.424Z,28.92
2023-02-17T10:20:10.887Z,30.17
2023-02-17T10:22:40.048Z,31.15
2023-02-17T10:25:33.095Z,30.90
2023-02-17T10:28:10.783Z,31.15
2023-02-17T10:30:47.519Z,32.60
2023-02-17T10:33:37.287Z,31.48
2023-02-17T10:36:32.938Z,30.80
2023-02-17T10:39:20.164Z,32.35
2023-02-17T10:41:49.557Z,32.03
2023-02-17T10:44:23.214Z,31.92
2023-02-17T10:46:51.339Z,31.13
2023-02-17T10:49:34.622Z,31.45
2023-02-17T10:52:10.772Z,30.50
2023-02-17T10:54:42.264Z,33.03
2023-02-17T10:57:12.841Z,32.05
2023-02-17T10:59:43.039Z,35.67
2023-02-17T11:02:25.110Z,33.38
2023-02-17T11:04:56.348Z,34.05
2023-02-17T11:07:32.552Z,30.20
2023-02-17T11:10:02.748Z,33.03
2023-02-17T11:12:42.272Z,29.67
2023-02-17T11:15:21.940Z,31.58
2023-02-17T11:17:49.275Z,31.02
2023-02-17T11:20:16.452Z,30.88
2023-02-17T11:22:49.076Z,30.27
2023-02-17T11:25:26.904Z,30.63
2023-02-17T11:27:58.075Z,31.17
2023-02-17T11:30:27.511Z,31.30
2023-02-17T11:32:55.343Z,31.58
2023-02-17T11:35:37.503Z,30.52
2023-02-17T11:38:11.980Z,29.23
2023-02-17T11:40:39.415Z,29.17
2023-02-17T11:43:06.797Z,30.30
2023-02-17T11:45:59.171Z,30.95
2023-02-17T11:48:35.759Z,30.38
2023-02-17T11:51:33.648Z,30.25
2023-02-17T11:54:06.383Z,32.50
2023-02-17T11:56:39.466Z,32.70
2023-02-17T11:59:25.254Z,30.27
2023-02-17T12:02:12.085Z,31.15
2023-02-17T12:04:52.939Z,29.77
2023-02-17T12:07:40.322Z,30.38
2023-02-17T12:10:24.508Z,29.52
2023-02-17T12:13:32.658Z,28.27
2023-02-17T12:16:08.947Z,30.52
2023-02-17T12:18:53.572Z,29.38
2023-02-17T12:21:34.469Z,28.42
2023-02-17T12:24:10.423Z,31.08
2023-02-17T12:26:43.628Z,28.70
2023-02-17T12:29:28.620Z,27.80
2023-02-17T12:32:18.894Z,28.52
2023-02-17T12:35:03.911Z,27.25
2023-02-17T12:37:33.222Z,26.27
2023-02-17T12:40:04.586Z,27.15
2023-02-17T12:42:43.588Z,27.65
2023-02-17T12:45:13.644Z,27.85
2023-02-17T12:48:24.251Z,27.05
2023-02-17T12:50:59.796Z,27.98
2023-02-17T12:53:51.586Z,27.83
2023-02-17T12:56:34.621Z,28.67
2023-02-17T12:59:15.192Z,25.85
2023-02-17T13:01:49.757Z,26.17
2023-02-17T13:04:20.656Z,25.40
2023-02-17T13:06:54.745Z,24.67
2023-02-17T13:09:33.152Z,24.58
2023-02-17T13:12:24.973Z,25.50
2023-02-17T13:14:56.286Z,25.58
2023-02-17T13:17:51.910Z,26.50
2023-02-17T13:20:18.673Z,25.98
2023-02-17T13:22:47.666Z,23.90
2023-02-17T13:25:31.058Z,24.48
2023-02-17T13:28:01.324Z,27.58
2023-02-17T13:30:40.825Z,23.48
2023-02-17T13:33:20.448Z,26.42
2023-02-17T13:35:48.126Z,26.13
2023-02-17T13:38:26.955Z,23.92
2023-02-17T13:41:02.523Z,26.27
2023-02-17T13:43:33.722Z,24.75
2023-02-17T13:46:02.100Z,23.90
2023-02-17T13:48:34.877Z,24.92
2023-02-17T13:51:07.215Z,22.70
2023-02-17T13:53:40.459Z,24.77
2023-02-17T13:56:10.823Z,25.15
2023-02-17T13:58:40.299Z,23.77
2023-02-17T14:01:14.293Z,25.20
2023-02-17T14:03:42.680Z,23.83
2023-02-17T14:06:21.557Z,24.88
2023-02-17T14:08:48.818Z,24.52
2023-02-17T14:11:20.122Z,25.55
2023-02-17T14:13:51.441Z,22.80
2023-02-17T14:16:27.862Z,24.75
2023-02-17T14:19:10.464Z,24.95
2023-02-17T14:21:44.550Z,24.70
2023-02-17T14:24:30.821Z,26.73
2023-02-17T14:27:08.280Z,26.20
2023-02-17T14:29:39.908Z,25.00
2023-02-17T14:32:07.034Z,24.52
2023-02-17T14:34:36.588Z,25.48
2023-02-17T14:37:10.848Z,27.17
2023-02-17T14:42:04.741Z,27.23
2023-02-17T14:44:31.657Z,25.27
2023-02-17T14:46:58.959Z,27.33
2023-02-17T14:49:25.854Z,26.45
2023-02-17T14:51:52.715Z,27.42
2023-02-17T14:54:19.757Z,26.80
2023-02-17T14:57:07.287Z,27.98
2023-02-17T14:59:34.245Z,29.45
2023-02-17T15:02:01.192Z,28.42
2023-02-17T15:04:28.274Z,27.70
2023-02-17T15:06:55.332Z,29.52
2023-02-17T15:09:30.510Z,28.55
2023-02-17T15:11:58.606Z,30.45
2023-02-17T15:29:50.040Z,29.55
2023-02-17T15:32:23.293Z,29.02
2023-02-17T15:34:50.425Z,29.73
2023-02-17T15:37:17.315Z,27.80
2023-02-17T15:39:44.265Z,28.88
2023-02-17T15:42:14.307Z,29.73
2023-02-17T15:44:51.131Z,32.40
2023-02-17T15:47:20.060Z,31.80
2023-02-17T15:49:47.248Z,31.67
2023-02-17T15:52:14.904Z,31.13
2023-02-17T15:54:42.898Z,33.25
2023-02-17T15:57:23.569Z,33.60
2023-02-17T15:59:50.736Z,31.98
2023-02-17T16:02:23.379Z,34.63
2023-02-17T16:04:50.702Z,40.20
2023-02-17T16:07:17.687Z,47.25
2023-02-17T16:09:44.567Z,40.65
2023-02-17T16:12:26.651Z,42.20
2023-02-17T16:14:54.740Z,38.80
2023-02-17T16:17:21.638Z,50.15
2023-02-17T16:19:48.492Z,36.22
2023-02-17T16:22:15.370Z,37.90
2023-02-17T16:24:42.269Z,37.47
2023-02-17T16:27:14.605Z,36.38
2023-02-17T16:29:41.889Z,35.65
2023-02-17T16:32:12.846Z,37.13
2023-02-17T16:34:40.403Z,36.90
2023-02-17T16:37:15.232Z,44.10
2023-02-17T16:39:42.358Z,35.05
2023-02-17T16:42:12.368Z,34.80
2023-02-17T16:44:39.228Z,38.08
2023-02-17T16:47:09.126Z,35.90
2023-02-17T16:49:39.881Z,34.15
2023-02-17T16:52:21.281Z,35.85
2023-02-17T16:54:48.103Z,29.55
2023-02-17T16:57:18.491Z,32.60
2023-02-17T16:59:46.473Z,35.97
2023-02-17T17:02:14.305Z,33.05
2023-02-17T17:04:41.222Z,31.45
2023-02-17T17:07:13.819Z,36.10
2023-02-17T17:09:40.978Z,33.10
2023-02-17T17:12:10.997Z,38.05
2023-02-17T17:14:37.965Z,40.50
2023-02-17T17:17:04.943Z,43.83
2023-02-17T17:19:31.784Z,44.05
2023-02-17T17:21:58.661Z,43.58
2023-02-17T17:24:25.652Z,55.45
2023-02-17T17:26:52.667Z,55.28
2023-02-17T17:29:19.784Z,50.28
2023-02-17T17:31:47.220Z,50.60
2023-02-17T17:34:14.314Z,48.75
2023-02-17T17:36:42.471Z,45.50
2023-02-17T17:39:16.295Z,46.55
2023-02-17T17:41:43.298Z,46.08
2023-02-17T17:44:10.710Z,47.28
2023-02-17T17:46:38.919Z,48.28
2023-02-17T17:49:10.192Z,49.15
2023-02-17T17:51:38.714Z,50.03
2023-02-17T17:54:07.043Z,48.92
2023-02-17T17:56:38.890Z,48.22
2023-02-17T17:59:06.786Z,48.72
2023-02-17T18:01:34.064Z,47.47
2023-02-17T18:04:01.692Z,50.15
2023-02-17T18:06:35.547Z,52.03
2023-02-17T18:09:05.382Z,48.90
2023-02-17T18:11:33.455Z,55.85
2023-02-17T18:14:05.362Z,49.38
2023-02-17T18:16:33.622Z,47.85
2023-02-17T18:19:02.328Z,47.70
2023-02-17T18:21:29.270Z,44.55
2023-02-17T18:23:56.293Z,45.42
2023-02-17T18:26:23.409Z,46.33
2023-02-17T18:28:50.269Z,51.50
2023-02-17T18:31:17.329Z,43.05
2023-02-17T18:33:44.276Z,44.90
2023-02-17T18:36:17.399Z,45.15
2023-02-17T18:38:45.219Z,44.45
2023-02-17T18:41:41.193Z,42.15
2023-02-17T18:44:11.066Z,43.78
2023-02-17T18:46:39.217Z,42.90
2023-02-17T18:49:06.553Z,42.25
2023-02-17T18:51:33.595Z,40.38
2023-02-17T18:54:01.591Z,37.70
2023-02-17T18:56:31.426Z,38.90
2023-02-17T18:58:58.835Z,38.65
2023-02-17T19:01:29.118Z,35.90
2023-02-17T19:03:56.452Z,41.03
2023-02-17T19:06:30.079Z,40.63
2023-02-17T19:08:57.150Z,39.67
2023-02-17T19:11:25.478Z,39.60
2023-02-17T19:13:53.420Z,41.88
2023-02-17T19:16:25.904Z,38.75
2023-02-17T19:18:53.045Z,41.50
2023-02-17T19:21:20.769Z,42.28
2023-02-17T19:23:48.716Z,42.13
2023-02-17T19:26:16.865Z,40.05
2023-02-17T19:28:45.153Z,41.30
2023-02-17T19:31:15.573Z,41.10
2023-02-17T19:33:44.368Z,40.47
2023-02-17T19:36:14.636Z,41.13
2023-02-17T19:38:41.655Z,36.28
2023-02-17T19:41:10.834Z,39.38
2023-02-17T19:43:37.824Z,38.35
2023-02-17T19:46:05.398Z,37.97
2023-02-17T19:48:33.115Z,37.88
2023-02-17T19:51:02.795Z,35.40
2023-02-17T19:53:31.586Z,31.33
2023-02-17T19:56:13.448Z,34.63
2023-02-17T19:58:41.923Z,36.17
2023-02-17T20:01:11.970Z,34.70
2023-02-17T20:03:39.503Z,36.10
2023-02-17T20:06:13.218Z,34.88
2023-02-17T20:08:40.333Z,35.65
2023-02-17T20:11:09.545Z,34.35
2023-02-17T20:13:45.721Z,32.70
2023-02-17T20:16:15.439Z,34.05
2023-02-17T20:18:44.978Z,32.72
2023-02-17T20:21:14.768Z,32.22
2023-02-17T20:23:41.875Z,33.95
2023-02-17T20:26:14.081Z,30.95
2023-02-17T20:28:41.345Z,32.75
2023-02-17T20:31:09.738Z,31.67
2023-02-17T20:33:36.864Z,34.38
2023-02-17T20:36:05.829Z,31.85
2023-02-17T20:38:33.229Z,33.67
2023-02-17T20:41:00.479Z,32.80
2023-02-17T20:43:27.409Z,31.92
2023-02-17T20:45:54.754Z,32.30
2023-02-17T20:48:22.053Z,31.50
2023-02-17T20:50:49.008Z,32.08
2023-02-17T20:53:15.857Z,31.15
2023-02-17T20:55:42.668Z,31.27
2023-02-17T20:58:10.804Z,30.17
2023-02-17T21:00:37.990Z,29.77
2023-02-17T21:03:05.301Z,31.55
2023-02-17T21:05:32.438Z,30.83
2023-02-17T21:07:59.521Z,30.95
2023-02-17T21:10:29.440Z,33.67
2023-02-17T21:12:56.591Z,34.33
2023-02-17T21:15:23.900Z,32.28
2023-02-17T21:17:51.230Z,31.75
2023-02-17T21:20:20.921Z,32.63
2023-02-17T21:22:48.304Z,33.80
2023-02-17T21:25:15.332Z,31.40
2023-02-17T21:27:42.360Z,30.85
2023-02-17T21:30:10.964Z,29.33
2023-02-17T21:32:38.581Z,30.80
2023-02-17T21:35:06.454Z,30.08
2023-02-17T21:37:34.452Z,30.55
2023-02-17T21:40:01.325Z,30.50
2023-02-17T21:42:46.808Z,30.90
2023-02-17T21:45:13.757Z,31.08
2023-02-17T21:47:40.633Z,30.70
2023-02-17T21:50:07.947Z,29.35
2023-02-17T21:52:34.977Z,28.52
2023-02-17T21:55:01.881Z,27.55
2023-02-17T21:57:28.895Z,26.15
2023-02-17T21:59:55.693Z,26.05
2023-02-17T22:02:22.627Z,25.58
2023-02-17T22:04:49.550Z,25.15
2023-02-17T22:07:16.425Z,25.58
2023-02-17T22:09:43.306Z,26.13
2023-02-17T22:12:10.131Z,25.38
2023-02-17T22:14:36.934Z,27.80
2023-02-17T22:17:04.037Z,25.30
2023-02-17T22:19:31.654Z,25.42
2023-02-17T22:21:58.804Z,26.02
2023-02-17T22:24:27.364Z,24.40
2023-02-17T22:26:54.882Z,28.23
2023-02-17T22:29:21.982Z,24.88
2023-02-17T22:31:50.517Z,24.27
2023-02-17T22:34:17.629Z,24.15
2023-02-17T22:36:44.915Z,24.15
2023-02-17T22:39:12.404Z,23.70
2023-02-17T22:41:39.920Z,24.55
2023-02-17T22:44:07.767Z,24.40
2023-02-17T22:46:35.362Z,23.02
2023-02-17T22:49:02.541Z,23.67
2023-02-17T22:51:32.123Z,24.77
2023-02-17T22:54:01.107Z,24.52
2023-02-17T22:56:28.889Z,23.70
2023-02-17T22:58:58.041Z,24.15
2023-02-17T23:01:25.451Z,23.83
2023-02-17T23:03:54.546Z,23.40
2023-02-17T23:06:27.981Z,24.25
2023-02-17T23:08:55.606Z,26.08
2023-02-17T23:11:44.161Z,27.17
2023-02-17T23:14:13.539Z,25.73
2023-02-17T23:16:40.598Z,27.70
2023-02-17T23:19:09.287Z,24.40
2023-02-17T23:21:36.766Z,23.95
2023-02-17T23:24:04.670Z,23.75
2023-02-17T23:26:31.595Z,25.13
2023-02-17T23:28:59.635Z,26.38
2023-02-17T23:31:26.637Z,23.67
2023-02-17T23:33:53.522Z,24.17
2023-02-17T23:36:20.629Z,22.92
2023-02-17T23:38:47.511Z,25.13
2023-02-17T23:41:14.358Z,23.90
2023-02-17T23:43:41.641Z,24.42
2023-02-17T23:46:08.914Z,22.30
2023-02-17T23:48:36.068Z,24.50
2023-02-17T23:51:04.775Z,23.83
2023-02-17T23:53:32.986Z,23.88
2023-02-17T23:56:14.624Z,24.45
2023-02-17T23:58:41.896Z,23.75
